SLCI weather

Public forecast

Using degrees Celsius for public forecast. Weather courtesy of forecast.io.

Closest aviation weather report (METAR) to Caigua Airport

Report is more than 6 hours old.

Closest report is Teniente Coronel Rafael Pab√≥n Airport, 13.8 nm (25.6 km) ESE. Retrieved 2020/08/14 17:00 UTC (12 hours ago):

SLVM 141700Z 00000KT 9999 NSC 33/18 Q1001

Closest aviation forecast (TAF) to Caigua Airport

Forecast is more than 12 hours old.

Closest forecast is Yacuiba Airport, 47.7 nm (88.3 km) S. Retrieved 2020/08/13 12:40 UTC (2 days ago):

TAF SLYA 131000Z 1312/1412 00000KT 9999 NSC TX24/1319Z TN09/1411Z BECMG 1314/1316 06010KT BECMG 1323/1401 00000KT